Time;durP1;ratioP1;P1;durP2;ratioP2;P2;SDS_P1;SDS_P2;PMS_P1;PMS_P2;Temp;Humidity;BMP_temperature;BMP_pressure;BME280_temperature;BME280_humidity;BME280_pressure;Samples;Min_cycle;Max_cycle;Signal;HPM_P1;HPM_P2
2022/08/12 00:44:56;;;;;;;3.00;1.83;;;24.10;77.60;;;;;;5030419;28;20112;-67
2022/08/12 00:47:22;;;;;;;2.88;2.28;;;22.90;76.90;;;;;;5031279;28;20189;-67
2022/08/12 00:49:48;;;;;;;4.30;1.67;;;22.60;76.90;;;;;;5031088;28;20083;-67
2022/08/12 00:52:16;;;;;;;4.13;2.03;;;22.60;77.30;;;;;;5030140;28;20482;-67
2022/08/12 00:54:44;;;;;;;5.07;1.75;;;22.60;77.40;;;;;;5031291;28;20121;-67
2022/08/12 00:57:17;;;;;;;4.00;2.13;;;22.50;78.20;;;;;;5031232;28;20474;-67
2022/08/12 00:59:50;;;;;;;4.28;1.70;;;22.50;78.40;;;;;;5026988;28;20034;-67
2022/08/12 01:02:29;;;;;;;3.78;2.17;;;22.40;78.70;;;;;;5030905;28;20501;-67
2022/08/12 01:13:21;;;;;;;2.53;1.60;;;22.20;79.10;;;;;;5030858;28;20167;-67
2022/08/12 01:15:50;;;;;;;3.90;1.90;;;22.20;78.90;;;;;;5030761;28;20071;-67
2022/08/12 01:18:18;;;;;;;4.68;2.47;;;22.10;77.80;;;;;;5030364;28;20146;-67
2022/08/12 01:20:52;;;;;;;3.95;1.58;;;22.00;79.30;;;;;;5031102;28;20033;-67
2022/08/12 01:23:44;;;;;;;7.22;2.63;;;22.10;78.30;;;;;;5030418;28;20514;-67
2022/08/12 01:26:16;;;;;;;4.50;1.70;;;22.00;79.10;;;;;;5030698;28;20475;-67
2022/08/12 01:28:45;;;;;;;3.15;2.10;;;22.30;80.80;;;;;;5012645;28;20030;-67
2022/08/12 01:31:11;;;;;;;2.95;2.30;;;21.90;80.30;;;;;;5030558;28;20065;-67
2022/08/12 01:33:49;;;;;;;3.95;1.80;;;21.80;80.30;;;;;;5029998;28;20025;-67
2022/08/12 01:36:17;;;;;;;3.58;2.35;;;21.70;81.00;;;;;;5029169;28;20444;-68
2022/08/12 01:38:46;;;;;;;3.25;1.65;;;21.80;81.10;;;;;;5030498;28;20043;-67
2022/08/12 01:41:15;;;;;;;2.40;1.83;;;21.70;81.10;;;;;;5029986;28;20108;-67
2022/08/12 01:43:41;;;;;;;3.17;1.88;;;21.60;81.20;;;;;;5030232;28;20025;-67
2022/08/12 01:46:29;;;;;;;6.03;2.22;;;21.60;81.40;;;;;;5030462;28;20029;-67
2022/08/12 01:49:14;;;;;;;6.85;2.40;;;21.60;81.10;;;;;;5030076;28;20024;-68
2022/08/12 01:51:42;;;;;;;1.90;1.70;;;21.70;80.90;;;;;;5030145;28;20044;-66
2022/08/12 01:54:16;;;;;;;3.58;2.22;;;21.50;82.30;;;;;;5028334;28;20081;-67
2022/08/12 01:56:50;;;;;;;3.03;2.55;;;22.20;83.40;;;;;;5029698;28;20236;-68
2022/08/12 01:59:45;;;;;;;3.45;2.50;;;21.40;83.50;;;;;;5029247;28;20033;-67
2022/08/12 02:02:15;;;;;;;2.78;2.40;;;21.30;83.50;;;;;;5018017;28;20431;-68
2022/08/12 02:11:21;;;;;;;2.75;2.17;;;21.30;83.40;;;;;;5020210;28;20028;-67
2022/08/12 02:14:11;;;;;;;4.65;2.40;;;21.20;83.00;;;;;;5011513;28;20431;-67
2022/08/12 02:16:55;;;;;;;4.82;2.17;;;21.10;84.80;;;;;;5030139;28;20116;-68
2022/08/12 02:19:45;;;;;;;3.33;2.50;;;21.10;82.30;;;;;;5029295;28;20026;-67
2022/08/12 02:22:28;;;;;;;3.90;2.35;;;21.10;83.70;;;;;;5027971;28;20777;-68
2022/08/12 02:25:10;;;;;;;4.22;2.75;;;21.00;85.80;;;;;;5029702;28;20105;-67
2022/08/12 02:27:44;;;;;;;3.38;2.85;;;21.00;84.00;;;;;;5020618;28;20134;-69
2022/08/12 02:30:13;;;;;;;4.55;2.05;;;20.90;85.40;;;;;;5029363;28;20026;-68
2022/08/12 02:32:43;;;;;;;6.43;2.25;;;21.30;85.70;;;;;;5029623;28;20041;-68
2022/08/12 02:35:13;;;;;;;3.10;2.50;;;20.90;85.90;;;;;;5029553;28;20026;-68
2022/08/12 02:37:40;;;;;;;3.25;2.50;;;20.90;85.90;;;;;;5025378;28;20478;-67
2022/08/12 02:40:08;;;;;;;4.25;2.22;;;20.80;86.10;;;;;;5029232;28;20027;-67
2022/08/12 02:42:35;;;;;;;4.28;2.90;;;20.80;85.60;;;;;;5028740;28;20713;-67
2022/08/12 02:45:07;;;;;;;3.13;2.78;;;22.00;87.20;;;;;;5028376;28;20033;-68
2022/08/12 02:47:39;;;;;;;8.65;2.38;;;20.90;87.00;;;;;;5028711;28;20025;-68
2022/08/12 02:50:05;;;;;;;3.47;2.55;;;20.80;86.90;;;;;;5011463;28;20040;-68
2022/08/12 02:52:33;;;;;;;4.45;2.63;;;20.80;86.00;;;;;;5010743;28;20037;-68
2022/08/12 02:55:11;;;;;;;5.65;3.53;;;20.70;86.90;;;;;;5028292;28;20112;-68
2022/08/12 02:57:38;;;;;;;5.93;2.78;;;20.80;87.20;;;;;;5028868;28;20033;-68
2022/08/12 03:00:06;;;;;;;4.88;2.45;;;20.80;86.80;;;;;;5028916;28;20814;-68
2022/08/12 03:02:34;;;;;;;3.33;2.53;;;20.70;86.50;;;;;;5028950;28;20033;-68
2022/08/12 03:05:02;;;;;;;3.03;2.15;;;20.70;87.50;;;;;;5029017;28;20108;-68
2022/08/12 03:07:42;;;;;;;4.85;3.30;;;20.90;87.80;;;;;;5028650;28;20392;-67
2022/08/12 03:10:10;;;;;;;5.30;2.78;;;20.60;88.10;;;;;;5028382;28;20029;-67
2022/08/12 03:12:40;;;;;;;8.38;2.80;;;20.70;88.30;;;;;;5028975;28;20041;-67
2022/08/12 03:15:09;;;;;;;5.55;2.63;;;20.50;88.30;;;;;;5028659;28;20053;-67
2022/08/12 03:17:56;;;;;;;3.33;2.60;;;20.50;88.10;;;;;;5028746;28;20056;-67
2022/08/12 03:20:23;;;;;;;4.47;2.92;;;20.50;89.00;;;;;;5026621;28;20417;-67
2022/08/12 03:22:50;;;;;;;4.32;2.75;;;20.50;88.50;;;;;;5029028;28;20117;-67
2022/08/12 03:25:26;;;;;;;2.95;1.98;;;20.50;88.70;;;;;;5027733;28;20033;-67
2022/08/12 03:27:56;;;;;;;3.63;2.47;;;20.50;89.00;;;;;;5028789;28;20140;-67
2022/08/12 03:30:28;;;;;;;6.82;2.90;;;20.30;88.50;;;;;;5028410;28;20033;-67
2022/08/12 03:32:55;;;;;;;7.60;3.17;;;20.40;89.10;;;;;;5028571;28;20037;-67
2022/08/12 03:35:27;;;;;;;5.25;2.65;;;20.40;87.80;;;;;;5028486;28;20041;-68
2022/08/12 03:37:56;;;;;;;4.55;2.60;;;20.30;89.20;;;;;;5028385;28;20037;-68
2022/08/12 04:02:40;;;;;;;4.20;3.08;;;20.20;87.60;;;;;;5032819;28;20076;-67
2022/08/12 04:05:10;;;;;;;5.55;3.17;;;20.20;89.30;;;;;;5032483;28;20508;-67
2022/08/12 04:07:36;;;;;;;3.22;2.85;;;20.20;88.70;;;;;;5031869;28;20125;-67
2022/08/12 04:10:04;;;;;;;3.20;2.50;;;20.00;89.10;;;;;;5031911;28;20103;-67
2022/08/12 04:15:17;;;;;;;;;;;20.10;87.70;;;;;;5032370;28;20064;-67
2022/08/12 04:17:43;;;;;;;3.40;2.88;;;20.10;90.20;;;;;;5032151;28;20368;-66
2022/08/12 04:20:12;;;;;;;6.32;2.60;;;20.10;89.50;;;;;;5031824;28;20107;-67
2022/08/12 04:22:38;;;;;;;4.25;3.15;;;20.00;89.50;;;;;;5031373;28;20033;-67
2022/08/12 04:25:04;;;;;;;3.65;2.75;;;20.30;89.60;;;;;;5031948;28;20033;-67
2022/08/12 04:27:30;;;;;;;8.38;3.13;;;20.00;89.50;;;;;;5031709;28;20410;-67
2022/08/12 04:29:59;;;;;;;4.18;2.67;;;20.50;90.10;;;;;;5030207;28;20021;-67
2022/08/12 04:32:25;;;;;;;7.40;3.47;;;19.90;88.20;;;;;;5031540;28;20075;-67
2022/08/12 04:34:50;;;;;;;7.72;3.58;;;19.90;89.80;;;;;;5032054;28;20018;-67
2022/08/12 04:37:16;;;;;;;4.20;3.50;;;20.30;90.00;;;;;;5030727;28;20029;-67
2022/08/12 04:39:44;;;;;;;4.22;3.30;;;19.90;90.00;;;;;;5031696;28;20025;-67
2022/08/12 04:42:10;;;;;;;5.82;3.45;;;19.90;90.40;;;;;;5031317;28;20086;-67
2022/08/12 04:44:35;;;;;;;4.05;2.85;;;19.90;90.00;;;;;;5031635;28;20120;-67
2022/08/12 04:47:01;;;;;;;6.75;3.90;;;20.00;90.00;;;;;;5031289;28;20033;-67
2022/08/12 04:49:29;;;;;;;3.42;3.03;;;19.80;90.00;;;;;;5031273;28;20034;-69
2022/08/12 04:51:55;;;;;;;5.88;3.45;;;19.90;90.10;;;;;;5031136;28;20056;-67
2022/08/12 04:54:22;;;;;;;6.03;3.42;;;19.80;90.20;;;;;;5030246;28;20096;-67
2022/08/12 04:56:52;;;;;;;7.75;3.83;;;21.60;90.60;;;;;;5031336;28;20112;-67
2022/08/12 04:59:18;;;;;;;4.15;3.45;;;19.90;90.30;;;;;;5030844;28;20099;-68
2022/08/12 05:01:50;;;;;;;3.85;3.45;;;19.80;90.00;;;;;;5031218;28;20068;-68
2022/08/12 05:04:17;;;;;;;3.40;2.75;;;19.60;90.30;;;;;;5030947;28;20358;-68
2022/08/12 05:06:44;;;;;;;4.30;2.65;;;19.90;90.20;;;;;;5030611;28;20032;-68
2022/08/12 05:09:09;;;;;;;5.70;3.22;;;20.00;89.90;;;;;;5016601;28;20021;-68
2022/08/12 05:11:36;;;;;;;5.50;3.10;;;19.90;90.00;;;;;;5031264;28;20041;-68
2022/08/12 05:14:01;;;;;;;4.70;3.15;;;19.90;89.90;;;;;;5031030;28;20049;-68
2022/08/12 05:16:27;;;;;;;6.40;3.42;;;19.90;90.00;;;;;;5030984;28;20485;-68
2022/08/12 05:18:52;;;;;;;5.22;3.38;;;20.10;90.00;;;;;;5030816;28;20402;-68
2022/08/12 05:21:18;;;;;;;4.55;3.45;;;19.90;90.00;;;;;;5030276;28;20071;-68
2022/08/12 05:23:44;;;;;;;5.68;3.15;;;20.00;90.00;;;;;;5030882;28;20033;-67
2022/08/12 05:26:09;;;;;;;3.38;2.90;;;20.10;89.80;;;;;;5030886;28;20021;-67
2022/08/12 05:28:36;;;;;;;4.15;3.70;;;20.00;89.90;;;;;;5030878;28;20036;-68
2022/08/12 05:31:01;;;;;;;4.43;3.17;;;20.10;89.60;;;;;;5028738;28;20148;-67
2022/08/12 05:33:36;;;;;;;5.65;3.13;;;20.20;89.70;;;;;;5030161;28;20037;-67
2022/08/12 05:36:07;;;;;;;5.70;3.75;;;20.20;90.00;;;;;;5026962;28;20524;-67
2022/08/12 05:41:19;;;;;;;5.18;3.85;;;20.40;89.30;;;;;;5029401;28;20108;-68
2022/08/12 05:43:56;;;;;;;3.78;3.47;;;20.40;88.70;;;;;;5030418;28;20728;-67
2022/08/12 05:46:22;;;;;;;4.15;3.55;;;21.40;90.00;;;;;;5029991;28;20101;-67
2022/08/12 05:48:50;;;;;;;4.50;3.88;;;21.40;89.50;;;;;;5023923;28;20053;-68
2022/08/12 05:51:17;;;;;;;4.80;2.72;;;20.40;88.70;;;;;;5025231;28;20566;-67
2022/08/12 05:53:43;;;;;;;4.35;3.95;;;22.00;89.20;;;;;;5029006;28;20045;-67
2022/08/12 05:56:19;;;;;;;5.90;4.20;;;20.60;88.10;;;;;;5030237;28;20451;-68
2022/08/12 05:58:50;;;;;;;4.85;3.65;;;20.70;88.80;;;;;;5029765;28;20052;-68
2022/08/12 06:01:15;;;;;;;5.88;3.65;;;21.60;88.80;;;;;;5029854;28;20021;-67
2022/08/12 06:03:41;;;;;;;5.32;3.65;;;20.70;87.30;;;;;;5029078;28;20029;-68
2022/08/12 06:06:08;;;;;;;3.88;3.15;;;20.80;87.30;;;;;;5008950;28;20083;-68
2022/08/12 06:08:34;;;;;;;5.00;3.78;;;20.90;87.50;;;;;;5025095;28;20030;-68
2022/08/12 06:11:04;;;;;;;4.32;3.92;;;21.00;87.20;;;;;;5029504;28;20032;-68
2022/08/12 06:13:33;;;;;;;5.43;3.85;;;21.00;87.10;;;;;;5030025;28;20435;-67
2022/08/12 06:15:59;;;;;;;6.53;4.15;;;21.10;86.80;;;;;;5029677;28;20029;-68
2022/08/12 06:18:25;;;;;;;7.07;3.83;;;21.00;86.00;;;;;;5029171;28;20501;-68
2022/08/12 06:20:57;;;;;;;6.45;3.75;;;21.10;85.80;;;;;;5029787;28;20025;-68
2022/08/12 06:23:27;;;;;;;6.57;4.50;;;21.10;85.50;;;;;;5020723;28;20052;-68
2022/08/12 06:25:54;;;;;;;4.53;3.88;;;21.20;85.30;;;;;;5028242;28;20030;-68
2022/08/12 06:28:21;;;;;;;6.53;3.78;;;21.20;85.50;;;;;;5028371;28;20075;-68
2022/08/12 06:30:47;;;;;;;4.95;3.58;;;21.30;85.20;;;;;;5029809;28;20028;-68
2022/08/12 06:33:13;;;;;;;4.30;3.90;;;21.30;85.40;;;;;;5028803;28;20369;-68
2022/08/12 06:35:42;;;;;;;4.43;3.75;;;21.40;85.10;;;;;;5028319;28;20049;-68
2022/08/12 06:38:20;;;;;;;4.68;3.50;;;21.90;85.30;;;;;;5029449;28;20040;-68
2022/08/12 06:43:34;;;;;;;4.38;3.25;;;21.50;85.10;;;;;;5029566;28;20548;-68
2022/08/12 06:46:00;;;;;;;6.65;3.78;;;21.70;84.40;;;;;;5029396;28;20029;-68
2022/08/12 06:48:27;;;;;;;4.30;3.17;;;21.70;84.00;;;;;;5028951;28;20095;-68
2022/08/12 06:50:57;;;;;;;3.40;3.10;;;21.80;83.80;;;;;;5029546;28;20109;-68
2022/08/12 06:53:24;;;;;;;6.53;4.38;;;21.90;82.20;;;;;;5029058;28;20049;-68
2022/08/12 06:55:51;;;;;;;5.40;2.95;;;22.00;83.50;;;;;;5029452;28;20022;-68
2022/08/12 06:58:19;;;;;;;5.20;3.42;;;22.10;83.20;;;;;;5028665;28;20035;-70
2022/08/12 07:00:45;;;;;;;3.50;3.20;;;22.20;82.80;;;;;;5029599;28;20017;-68
2022/08/12 07:03:16;;;;;;;4.35;3.33;;;22.20;82.30;;;;;;5010486;28;20490;-68
2022/08/12 07:05:42;;;;;;;3.63;3.33;;;22.20;82.10;;;;;;5029438;28;20025;-68
2022/08/12 07:08:08;;;;;;;4.95;3.40;;;22.20;81.90;;;;;;5029112;28;20036;-68
2022/08/12 07:10:39;;;;;;;4.38;3.33;;;22.50;81.80;;;;;;5028906;28;20075;-68
2022/08/12 07:13:05;;;;;;;5.93;4.43;;;22.50;82.10;;;;;;5028383;28;20116;-68
2022/08/12 07:15:30;;;;;;;5.05;3.65;;;22.60;80.90;;;;;;5026457;28;20432;-68
2022/08/12 07:18:19;;;;;;;5.22;4.43;;;23.60;81.20;;;;;;5028408;28;20025;-68
2022/08/12 07:20:47;;;;;;;4.63;4.13;;;22.70;81.00;;;;;;5028556;28;20029;-68
2022/08/12 07:23:14;;;;;;;5.13;4.22;;;23.60;80.90;;;;;;5028586;28;20018;-68
2022/08/12 07:25:41;;;;;;;4.75;3.78;;;23.00;79.70;;;;;;5029170;28;20156;-68
2022/08/12 07:28:08;;;;;;;6.40;3.60;;;23.00;79.00;;;;;;5027573;28;20135;-68
2022/08/12 07:30:37;;;;;;;8.55;3.33;;;23.40;79.70;;;;;;5027722;28;20024;-68
2022/08/12 07:33:04;;;;;;;4.50;2.97;;;23.20;78.90;;;;;;5028637;28;20390;-68
2022/08/12 07:35:31;;;;;;;3.60;3.30;;;23.40;78.70;;;;;;5028707;28;20029;-68
2022/08/12 07:37:59;;;;;;;4.78;4.32;;;23.40;78.70;;;;;;5028619;28;20063;-68
2022/08/12 07:40:26;;;;;;;4.45;3.47;;;23.50;78.00;;;;;;5028114;28;20060;-69
2022/08/12 07:42:52;;;;;;;3.58;3.28;;;23.70;77.40;;;;;;5028805;28;20305;-70
2022/08/12 07:45:19;;;;;;;4.80;3.05;;;23.80;77.10;;;;;;5026783;28;20433;-68
2022/08/12 07:47:46;;;;;;;4.00;3.35;;;24.00;76.70;;;;;;5027305;28;20036;-68
2022/08/12 07:50:15;;;;;;;5.20;3.50;;;24.10;76.30;;;;;;5028133;28;20064;-68
2022/08/12 07:52:44;;;;;;;4.00;3.53;;;24.20;76.40;;;;;;5028605;28;20569;-68
2022/08/12 07:55:10;;;;;;;4.45;3.28;;;24.20;76.20;;;;;;5028455;28;20048;-68
2022/08/12 07:57:54;;;;;;;4.07;3.08;;;24.40;75.70;;;;;;5028774;28;20512;-68
2022/08/12 08:00:20;;;;;;;8.35;3.20;;;24.50;73.90;;;;;;5028272;28;20072;-68
2022/08/12 08:02:46;;;;;;;3.90;3.20;;;24.60;74.30;;;;;;5028893;28;20029;-68
2022/08/12 08:05:11;;;;;;;3.95;3.40;;;24.90;73.90;;;;;;5028013;28;20026;-68
2022/08/12 08:07:37;;;;;;;7.68;3.08;;;24.90;72.90;;;;;;5028708;28;20056;-68
2022/08/12 08:10:07;;;;;;;4.13;3.08;;;25.20;73.10;;;;;;5028122;28;20032;-68
2022/08/12 08:15:19;;;;;;;4.15;2.90;;;25.30;70.60;;;;;;5027641;28;20029;-68
2022/08/12 08:18:01;;;;;;;3.47;3.00;;;25.50;72.10;;;;;;5028246;28;20112;-68
2022/08/12 08:20:32;;;;;;;4.32;3.15;;;25.40;70.10;;;;;;5026817;28;20485;-68
2022/08/12 08:23:04;;;;;;;4.07;2.60;;;26.00;71.60;;;;;;5027579;28;20041;-68
2022/08/12 08:25:30;;;;;;;6.03;3.17;;;25.60;70.60;;;;;;5027970;28;20060;-68
2022/08/12 08:27:58;;;;;;;2.95;2.70;;;25.70;69.80;;;;;;5028272;28;20021;-68
2022/08/12 08:30:25;;;;;;;4.22;2.50;;;25.80;70.40;;;;;;5027619;28;20463;-68
2022/08/12 08:32:50;;;;;;;5.75;3.08;;;25.50;69.80;;;;;;5010405;28;20037;-68
2022/08/12 08:35:15;;;;;;;6.32;3.05;;;27.10;69.80;;;;;;5010081;28;20442;-68
2022/08/12 08:37:45;;;;;;;5.05;2.97;;;26.00;67.70;;;;;;5028175;28;20033;-68
2022/08/12 08:42:55;;;;;;;3.20;2.60;;;26.20;66.60;;;;;;5026561;28;20028;-67
2022/08/12 08:45:20;;;;;;;2.95;2.67;;;26.30;66.60;;;;;;5031150;28;20025;-67
2022/08/12 08:47:47;;;;;;;5.32;2.63;;;26.70;66.40;;;;;;5032014;28;20021;-67
2022/08/12 08:50:16;;;;;;;4.03;3.50;;;26.40;65.90;;;;;;5031328;28;20014;-70
2022/08/12 08:52:43;;;;;;;2.92;2.42;;;26.80;64.10;;;;;;5027977;28;20054;-69
2022/08/12 08:55:12;;;;;;;5.13;3.50;;;26.80;65.60;;;;;;5031473;28;20026;-69
2022/08/12 08:57:39;;;;;;;2.42;2.22;;;26.60;65.40;;;;;;5031303;28;20045;-69
2022/08/12 09:00:05;;;;;;;4.53;2.45;;;27.50;66.00;;;;;;5030853;28;20108;-69
2022/08/12 09:02:31;;;;;;;4.22;2.13;;;26.90;65.00;;;;;;5027795;28;20017;-69
2022/08/12 09:04:56;;;;;;;4.60;2.58;;;27.00;65.00;;;;;;5031195;28;20033;-69
2022/08/12 09:07:22;;;;;;;4.80;2.65;;;27.10;64.20;;;;;;5029905;28;20033;-68
2022/08/12 09:09:49;;;;;;;4.70;2.60;;;27.20;64.30;;;;;;5031350;28;20436;-68
2022/08/12 09:14:59;;;;;;;3.63;2.10;;;27.40;61.20;;;;;;5022180;28;20087;-69
2022/08/12 09:17:24;;;;;;;3.15;2.05;;;27.50;62.60;;;;;;5030298;28;20018;-69
2022/08/12 09:19:50;;;;;;;6.45;2.22;;;27.40;62.40;;;;;;5031105;28;20144;-69
2022/08/12 09:22:15;;;;;;;4.50;2.35;;;27.30;62.00;;;;;;5030535;28;20021;-69
2022/08/12 09:24:41;;;;;;;7.60;2.63;;;27.80;62.60;;;;;;5030161;28;20045;-69
2022/08/12 09:27:07;;;;;;;4.03;2.33;;;27.40;61.70;;;;;;5030452;28;20030;-68
2022/08/12 09:29:33;;;;;;;4.95;2.10;;;27.40;61.50;;;;;;5030488;28;20025;-69
2022/08/12 09:31:59;;;;;;;2.47;2.05;;;27.60;61.50;;;;;;5030654;28;20037;-69
2022/08/12 09:34:28;;;;;;;4.68;2.25;;;27.50;60.90;;;;;;5029428;28;20177;-70
2022/08/12 09:36:54;;;;;;;2.58;2.15;;;27.70;60.70;;;;;;5030168;28;20026;-69
2022/08/12 09:39:20;;;;;;;3.83;2.55;;;27.70;60.40;;;;;;5030460;28;20374;-70
2022/08/12 09:45:19;;;;;;;4.38;2.20;;;27.80;60.30;;;;;;5029585;28;20017;-70
2022/08/12 09:47:15;;;;;;;2.88;2.10;;;27.90;58.70;;;;;;5024874;28;20125;-69
2022/08/12 09:49:40;;;;;;;3.35;2.13;;;28.10;60.10;;;;;;5029852;28;20108;-69
2022/08/12 09:52:06;;;;;;;5.30;2.40;;;28.00;59.50;;;;;;5030145;28;20033;-69
2022/08/12 09:54:31;;;;;;;4.82;2.30;;;28.50;59.50;;;;;;5029649;28;20077;-69
2022/08/12 09:56:57;;;;;;;2.80;2.38;;;28.30;58.80;;;;;;5029304;28;20450;-71
2022/08/12 09:59:23;;;;;;;3.40;2.15;;;28.90;57.80;;;;;;5030227;28;20104;-69
2022/08/12 10:01:48;;;;;;;2.95;2.00;;;28.20;57.10;;;;;;5028958;28;20124;-69
2022/08/12 10:04:14;;;;;;;2.92;2.08;;;28.60;56.40;;;;;;5029979;28;20430;-69
2022/08/12 10:06:42;;;;;;;2.45;2.22;;;28.50;56.30;;;;;;5030396;28;20106;-69
2022/08/12 10:09:09;;;;;;;6.35;2.70;;;28.40;54.70;;;;;;5030010;28;20030;-69
2022/08/12 10:14:20;;;;;;;5.40;2.65;;;28.70;56.00;;;;;;5030205;28;20036;-71
2022/08/12 10:16:47;;;;;;;5.35;2.53;;;28.60;56.30;;;;;;5029843;28;20096;-69
2022/08/12 10:19:14;;;;;;;2.78;1.70;;;28.50;56.50;;;;;;5029363;28;20033;-70
2022/08/12 10:21:40;;;;;;;2.28;2.08;;;28.70;56.60;;;;;;5030072;28;20025;-69
2022/08/12 10:24:08;;;;;;;5.65;2.72;;;29.80;57.50;;;;;;5029871;28;20446;-70
2022/08/12 10:32:05;;;;;;;6.53;2.22;;;29.10;54.30;;;;;;5030038;28;20099;-70
2022/08/12 10:34:31;;;;;;;4.82;2.10;;;29.60;55.40;;;;;;5029695;28;20029;-70
2022/08/12 10:36:58;;;;;;;3.85;2.20;;;29.00;54.50;;;;;;5029306;28;20032;-71
2022/08/12 10:39:26;;;;;;;4.20;1.98;;;29.10;55.40;;;;;;5029146;28;20032;-70
2022/08/12 10:44:36;;;;;;;3.03;1.90;;;29.00;53.20;;;;;;5029813;28;20052;-70
2022/08/12 10:47:03;;;;;;;7.32;2.30;;;29.20;54.70;;;;;;5029224;28;20458;-70
2022/08/12 10:49:33;;;;;;;3.70;2.20;;;29.30;54.50;;;;;;5029361;28;20049;-70
2022/08/12 10:52:00;;;;;;;3.58;2.60;;;29.40;54.50;;;;;;5028963;28;20116;-70
2022/08/12 10:54:26;;;;;;;2.38;2.15;;;29.20;54.40;;;;;;5028674;28;20049;-70
2022/08/12 10:56:56;;;;;;;3.13;1.75;;;30.20;54.80;;;;;;5029434;28;20022;-70
2022/08/12 10:59:23;;;;;;;3.38;2.83;;;29.40;51.60;;;;;;5029318;28;20017;-69
2022/08/12 11:01:50;;;;;;;2.50;2.25;;;29.40;53.20;;;;;;5029696;28;20025;-70
2022/08/12 11:04:16;;;;;;;6.28;2.20;;;29.30;53.10;;;;;;5029021;28;20117;-69
2022/08/12 11:06:46;;;;;;;5.38;3.35;;;30.50;54.00;;;;;;5028690;28;20100;-70
2022/08/12 11:09:16;;;;;;;2.15;1.95;;;29.50;53.20;;;;;;5024216;28;20034;-70
2022/08/12 11:11:47;;;;;;;3.08;2.10;;;29.40;51.00;;;;;;5022155;28;20493;-70
2022/08/12 11:14:27;;;;;;;2.50;1.95;;;29.50;51.40;;;;;;5028622;28;20029;-70
2022/08/12 11:16:59;;;;;;;5.13;2.38;;;30.20;54.60;;;;;;5029061;28;20026;-70
2022/08/12 11:19:26;;;;;;;2.05;1.95;;;29.40;51.60;;;;;;5019485;28;20132;-70
2022/08/12 11:21:52;;;;;;;2.92;1.92;;;29.50;52.80;;;;;;5028302;28;20033;-70
2022/08/12 11:24:18;;;;;;;2.95;1.90;;;30.50;53.50;;;;;;5027481;28;20022;-71
2022/08/12 11:26:44;;;;;;;8.20;2.47;;;29.60;53.40;;;;;;5010629;28;20057;-71
2022/08/12 11:29:09;;;;;;;2.88;2.58;;;29.90;55.20;;;;;;5028383;28;20059;-71
2022/08/12 11:31:35;;;;;;;3.40;2.97;;;29.30;56.60;;;;;;5028718;28;20117;-69
2022/08/12 11:34:00;;;;;;;2.00;1.67;;;29.20;57.30;;;;;;5028322;28;20026;-70
2022/08/12 11:36:26;;;;;;;4.53;2.50;;;29.00;56.80;;;;;;5028526;28;20383;-70
2022/08/12 11:38:53;;;;;;;4.03;2.50;;;28.90;57.00;;;;;;5028519;28;20021;-70
2022/08/12 11:41:19;;;;;;;4.25;2.42;;;29.00;56.10;;;;;;5028143;28;20496;-70
2022/08/12 11:43:44;;;;;;;2.72;2.53;;;29.10;56.30;;;;;;5028769;28;20037;-71
2022/08/12 11:46:10;;;;;;;6.75;2.92;;;29.00;56.20;;;;;;5026893;28;20123;-70
2022/08/12 11:48:39;;;;;;;3.75;2.20;;;29.20;56.90;;;;;;5028683;28;20026;-70
2022/08/12 11:51:06;;;;;;;3.60;2.50;;;29.60;58.10;;;;;;5028574;28;20063;-70
2022/08/12 11:53:32;;;;;;;2.88;2.58;;;28.80;56.60;;;;;;5027861;28;20045;-70
2022/08/12 11:55:58;;;;;;;2.85;2.08;;;29.80;56.40;;;;;;5028467;28;20029;-70
2022/08/12 11:58:23;;;;;;;2.00;1.80;;;29.70;55.70;;;;;;5028470;28;20059;-70
2022/08/12 12:00:49;;;;;;;3.72;2.53;;;29.20;54.80;;;;;;5028990;28;20014;-70
2022/08/12 12:03:14;;;;;;;3.70;2.05;;;29.00;54.50;;;;;;5028317;28;20032;-70
2022/08/12 12:05:40;;;;;;;4.43;2.17;;;29.10;54.40;;;;;;5028728;28;20064;-69
2022/08/12 12:08:05;;;;;;;6.88;2.20;;;29.40;54.40;;;;;;5028208;28;20454;-70
2022/08/12 12:10:31;;;;;;;4.30;2.35;;;30.30;54.90;;;;;;5028532;28;20095;-70
2022/08/12 12:12:56;;;;;;;3.33;3.10;;;29.30;53.80;;;;;;5028568;28;20390;-70
2022/08/12 12:15:22;;;;;;;3.92;2.47;;;29.10;53.50;;;;;;5028205;28;20038;-70
2022/08/12 12:17:50;;;;;;;2.67;2.47;;;29.20;54.00;;;;;;5030379;28;20021;-70
2022/08/12 12:20:16;;;;;;;5.75;3.83;;;29.30;53.90;;;;;;5031871;28;20021;-70
2022/08/12 12:22:41;;;;;;;8.82;6.88;;;29.40;53.70;;;;;;5032028;28;20437;-70
2022/08/12 12:25:08;;;;;;;8.68;4.63;;;29.50;53.60;;;;;;5032084;28;20029;-70
2022/08/12 12:27:45;;;;;;;3.58;2.65;;;29.60;53.10;;;;;;5017859;28;20442;-70
2022/08/12 12:30:11;;;;;;;10.73;5.38;;;29.50;54.30;;;;;;5020766;28;20053;-70
2022/08/12 12:32:36;;;;;;;5.05;3.53;;;29.80;53.60;;;;;;5031620;28;20084;-70
2022/08/12 12:35:02;;;;;;;6.55;2.40;;;29.70;52.80;;;;;;5030985;28;20473;-69
2022/08/12 12:37:27;;;;;;;4.57;3.28;;;29.70;53.00;;;;;;5031135;28;20047;-70
2022/08/12 12:39:56;;;;;;;4.28;2.78;;;31.00;53.90;;;;;;5031442;28;20025;-69
2022/08/12 12:42:21;;;;;;;2.58;1.65;;;29.50;64.40;;;;;;5029811;28;20044;-69
2022/08/12 12:44:47;;;;;;;4.70;2.50;;;29.60;57.40;;;;;;5031807;28;20139;-73
2022/08/12 12:47:14;;;;;;;2.78;2.58;;;31.90;56.30;;;;;;5031730;28;20060;-69
2022/08/12 12:49:39;;;;;;;3.22;2.95;;;30.40;54.90;;;;;;5031448;28;20167;-71
2022/08/12 12:52:05;;;;;;;3.85;2.58;;;29.80;54.30;;;;;;5031209;28;20534;-69
2022/08/12 12:54:30;;;;;;;5.22;3.95;;;29.80;54.50;;;;;;5030154;28;20120;-70
2022/08/12 12:56:57;;;;;;;3.80;3.03;;;30.10;54.30;;;;;;5030541;28;20087;-70
2022/08/12 12:59:23;;;;;;;5.25;2.75;;;30.30;54.30;;;;;;5029937;28;20463;-69
2022/08/12 13:01:49;;;;;;;3.92;2.13;;;30.00;53.20;;;;;;5022891;28;20899;-69
2022/08/12 13:04:15;;;;;;;2.75;1.85;;;30.10;52.60;;;;;;5029284;28;20025;-69
2022/08/12 13:06:40;;;;;;;3.38;2.25;;;30.40;52.00;;;;;;5030174;28;20188;-70
2022/08/12 13:09:06;;;;;;;4.00;2.20;;;30.30;51.80;;;;;;5030182;28;20029;-70
2022/08/12 13:11:32;;;;;;;2.72;2.10;;;30.40;51.90;;;;;;5029762;28;20029;-70
2022/08/12 13:13:58;;;;;;;2.92;2.15;;;30.60;52.80;;;;;;5029892;28;20021;-70
2022/08/12 13:16:28;;;;;;;3.92;2.22;;;30.40;51.50;;;;;;5030114;28;20022;-71
2022/08/12 13:18:54;;;;;;;2.30;2.10;;;30.40;52.60;;;;;;5029469;28;20030;-70
2022/08/12 13:21:20;;;;;;;2.78;1.73;;;30.90;52.70;;;;;;5028816;28;20033;-67
2022/08/12 13:23:46;;;;;;;2.83;2.10;;;30.60;52.70;;;;;;5030775;28;20463;-67
2022/08/12 13:26:14;;;;;;;4.93;2.42;;;30.70;52.00;;;;;;5030296;28;20022;-69
2022/08/12 13:28:41;;;;;;;4.38;2.13;;;31.30;52.10;;;;;;5029913;28;20342;-71
2022/08/12 13:31:07;;;;;;;3.50;2.30;;;30.50;51.40;;;;;;5030860;28;20029;-70
2022/08/12 13:33:33;;;;;;;2.03;1.85;;;30.40;51.40;;;;;;5030344;28;20053;-70
2022/08/12 13:36:00;;;;;;;2.80;1.88;;;30.50;51.40;;;;;;5030320;28;20025;-70
2022/08/12 13:38:52;;;;;;;6.75;2.15;;;31.10;51.70;;;;;;5030581;28;20045;-70
2022/08/12 13:41:35;;;;;;;3.05;2.30;;;30.50;52.20;;;;;;5023794;28;20394;-70
2022/08/12 13:44:08;;;;;;;4.68;1.98;;;31.50;49.50;;;;;;5017817;28;20033;-69
2022/08/12 13:46:37;;;;;;;4.25;1.98;;;30.70;51.00;;;;;;5030275;28;20034;-69
2022/08/12 13:49:05;;;;;;;2.75;2.22;;;30.80;48.50;;;;;;5023531;28;20026;-69
2022/08/12 13:51:31;;;;;;;2.75;2.10;;;31.00;49.90;;;;;;5022212;28;20025;-70
2022/08/12 13:53:57;;;;;;;2.95;1.60;;;30.70;49.80;;;;;;5018946;28;20101;-70
2022/08/12 13:56:25;;;;;;;2.92;1.80;;;32.10;51.10;;;;;;5017731;28;20065;-70
2022/08/12 13:58:51;;;;;;;3.22;2.00;;;30.50;50.00;;;;;;5017469;28;20561;-70
2022/08/12 14:01:21;;;;;;;3.55;1.92;;;30.70;49.90;;;;;;5013252;28;20033;-70
2022/08/12 14:03:48;;;;;;;2.78;1.95;;;30.90;50.30;;;;;;5014734;28;20021;-68
2022/08/12 14:06:14;;;;;;;4.22;2.05;;;31.40;50.80;;;;;;5013957;28;20026;-69
2022/08/12 14:08:40;;;;;;;3.75;2.10;;;30.90;50.40;;;;;;5016181;28;20052;-69
2022/08/12 14:11:06;;;;;;;2.78;1.83;;;31.80;50.60;;;;;;5016138;28;20030;-68
2022/08/12 14:13:36;;;;;;;5.13;2.10;;;31.10;50.00;;;;;;5014677;28;20087;-68
2022/08/12 14:16:02;;;;;;;3.40;2.17;;;31.00;50.20;;;;;;5018240;28;20033;-68
2022/08/12 14:18:30;;;;;;;2.90;1.95;;;31.10;50.40;;;;;;5015870;28;20112;-68
2022/08/12 14:21:01;;;;;;;2.35;2.13;;;31.20;50.60;;;;;;5012642;28;20091;-69
2022/08/12 14:23:29;;;;;;;2.38;2.05;;;31.10;51.00;;;;;;5018224;28;20057;-68
2022/08/12 14:25:58;;;;;;;4.07;2.03;;;31.10;50.50;;;;;;5016109;28;20140;-67
2022/08/12 14:28:24;;;;;;;4.15;2.22;;;31.20;49.80;;;;;;5015479;28;20009;-70
2022/08/12 14:30:59;;;;;;;6.25;2.33;;;31.30;49.50;;;;;;5029519;28;20025;-68
2022/08/12 14:33:28;;;;;;;2.65;1.60;;;31.30;50.30;;;;;;5029145;28;20442;-70
2022/08/12 14:35:54;;;;;;;1.73;1.60;;;31.40;49.90;;;;;;5029288;28;20112;-69
2022/08/12 14:38:26;;;;;;;5.15;2.00;;;31.10;49.60;;;;;;5028502;28;20068;-69
2022/08/12 14:40:55;;;;;;;2.45;1.60;;;31.40;47.50;;;;;;5025197;28;20049;-69
2022/08/12 14:43:21;;;;;;;3.55;2.05;;;;;;;;;;5028875;28;20401;-70
2022/08/12 14:45:47;;;;;;;1.67;1.50;;;31.50;46.10;;;;;;5028717;28;20109;-69